Terminal Aerodrome Forecast
Issued by NWS Kansas City/Pleasant Hill, MO

Home | Current Version | Previous Version | Text Only | Print | Product List | Glossary On
Versions: 1 2 3 4 5 6 7 8 9 10 11 12 13 14 15 16 17
000
FTUS43 KEAX 010200 AAA
TAFMCI
TAF AMD
KMCI 010202Z 0102/0124 17016G22KT P6SM VCTS FEW050CB SCT130 OVC250
     FM010230 18010KT 3SM -TSRA SCT025CB BKN035
      TEMPO 0103/0105 VRB25G40KT 2SM TSRA BR SCT015CB OVC025
     FM010700 20010KT 4SM -SHRA VCTS SCT015CB OVC025
     FM011100 20005KT P6SM SCT020 OVC035
     FM011800 31006KT P6SM SCT020 OVC035=

USA.gov is the U.S. government's official web portal to all federal, state and local government web resources and services.